Brighton, MI

3:02 PM EST on December 22, 2014 (GMT -0500)
Oakland County International | Change Station
CLOSE
Current Station
Airport
Location: Pontiac,
Elevation: 981 ft
Nearby Weather Stations

Elev 981 ft 42.67 °N, 83.42 °W | Updated 9 minutes ago

Mostly Cloudy
Mostly Cloudy
36 °F
Feels Like 28 °F
N
10
Wind Variable Wind from ESE

Today
High -- | Low -- °F
--% Chance of Precip.
Yesterday
High -- | Low -- °F
Precip. -- in
8:01 AM 5:05 PM
New Moon, 1% visible
Pressure 29.98 in
Visibility 10.0 miles
Clouds Few 1700 ft
Scattered Clouds 10000 ft
Mostly Cloudy 22000 ft
Overcast 24000 ft
Windchill 28 °F
Dew Point 29 °F
Humidity 76%
Rainfall 0.00 in
Snow Depth Not available.
UV 0 out of 12
Pollen .10 out of 12
Air Quality Not available.
Flu Activity Not available.
METAR KPTK 221953Z 11009KT 10SM FEW017 SCT100 BKN220 OVC240 02/M02 A2994 RMK AO2 SLP150 T00221017

More Conditions Fewer Conditions

Pressure 29.98 in
Visibility 10.0 miles
Clouds Few 1700 ft
Scattered Clouds 10000 ft
Mostly Cloudy 22000 ft
Overcast 24000 ft
Windchill 28 °F
Dew Point 29 °F
Humidity 76%
Rainfall 0.00 in
Snow Depth Not available.
UV 0 out of 12
Pollen .10 out of 12
Air Quality Not available.
Flu Activity Not available.
METAR KPTK 221953Z 11009KT 10SM FEW017 SCT100 BKN220 OVC240 02/M02 A2994 RMK AO2 SLP150 T00221017

More Conditions Fewer Conditions

10-Day Weather Forecast

Almanac

Astronomy

Dec. 22, 2014 Rise Set
Actual Time
Civil Twilight
Nautical Twilight
Astronomical Twilight
Moon
Length of Visible Light
Length of Day
Tomorrow will be .
, % of the Moon is Illuminated

Today's Extremes

State Highs State Lows

Community

WunderPhotos

Upload Photos

1,779,708 photos uploaded!

WunderBlogs® & News

Nearby

Air Quality

  Air Quality AQ Index Pollutant
Not available.

Snow Depth

Station Depth Elevation

Earthquake Activity

City Distance Mag. Time & Date
Minimum magnitude displayed is 2.5.

Coastal Water Temperatures

Place Temperature

Nearby Weather Stations